sensor_id;sensor_type;location;lat;lon;timestamp;pressure;altitude;pressure_sealevel;temperature;humidity
61408;BME280;47274;43.054;25.146;2023-03-04T00:00:47;95485.06;;;2.12;100.00
61408;BME280;47274;43.054;25.146;2023-03-04T00:03:28;95460.88;;;1.94;100.00
61408;BME280;47274;43.054;25.146;2023-03-04T00:06:00;95568.69;;;2.65;100.00
61408;BME280;47274;43.054;25.146;2023-03-04T00:08:33;95489.09;;;2.15;100.00
61408;BME280;47274;43.054;25.146;2023-03-04T00:11:05;95437.25;;;1.81;100.00
61408;BME280;47274;43.054;25.146;2023-03-04T00:13:40;95444.84;;;1.81;100.00
61408;BME280;47274;43.054;25.146;2023-03-04T00:16:12;95530.03;;;2.36;100.00
61408;BME280;47274;43.054;25.146;2023-03-04T00:18:46;95455.31;;;1.89;100.00
61408;BME280;47274;43.054;25.146;2023-03-04T00:21:18;95558.72;;;2.49;100.00
61408;BME280;47274;43.054;25.146;2023-03-04T00:23:56;95525.66;;;2.38;100.00
61408;BME280;47274;43.054;25.146;2023-03-04T00:26:25;95516.44;;;2.37;100.00
61408;BME280;47274;43.054;25.146;2023-03-04T00:29:00;95462.66;;;2.06;100.00
61408;BME280;47274;43.054;25.146;2023-03-04T00:31:38;95478.97;;;2.15;100.00
61408;BME280;47274;43.054;25.146;2023-03-04T00:34:10;95428.34;;;1.75;100.00
61408;BME280;47274;43.054;25.146;2023-03-04T00:36:42;95436.06;;;1.86;100.00
61408;BME280;47274;43.054;25.146;2023-03-04T00:39:24;95497.56;;;2.28;100.00
61408;BME280;47274;43.054;25.146;2023-03-04T00:41:51;95515.34;;;2.41;100.00
61408;BME280;47274;43.054;25.146;2023-03-04T00:44:22;95466.31;;;2.15;100.00
61408;BME280;47274;43.054;25.146;2023-03-04T00:46:57;95469.59;;;2.17;100.00
61408;BME280;47274;43.054;25.146;2023-03-04T00:49:31;95498.78;;;2.35;100.00
61408;BME280;47274;43.054;25.146;2023-03-04T00:51:58;95464.81;;;2.12;100.00
61408;BME280;47274;43.054;25.146;2023-03-04T00:54:30;95450.50;;;1.99;100.00
61408;BME280;47274;43.054;25.146;2023-03-04T00:57:05;95426.31;;;1.80;100.00
61408;BME280;47274;43.054;25.146;2023-03-04T00:59:34;95428.66;;;1.83;100.00
61408;BME280;47274;43.054;25.146;2023-03-04T01:02:06;95412.97;;;1.78;100.00
61408;BME280;47274;43.054;25.146;2023-03-04T01:04:39;95497.66;;;2.27;100.00
61408;BME280;47274;43.054;25.146;2023-03-04T01:07:07;95413.16;;;1.75;100.00
61408;BME280;47274;43.054;25.146;2023-03-04T01:09:36;95520.69;;;2.36;100.00
61408;BME280;47274;43.054;25.146;2023-03-04T01:12:09;95459.94;;;2.09;100.00
61408;BME280;47274;43.054;25.146;2023-03-04T01:14:38;95462.56;;;2.08;100.00
61408;BME280;47274;43.054;25.146;2023-03-04T01:17:12;95469.16;;;2.10;100.00
61408;BME280;47274;43.054;25.146;2023-03-04T01:19:44;95516.88;;;2.44;100.00
61408;BME280;47274;43.054;25.146;2023-03-04T01:22:16;95422.31;;;1.90;100.00
61408;BME280;47274;43.054;25.146;2023-03-04T01:24:51;95412.69;;;1.83;100.00
61408;BME280;47274;43.054;25.146;2023-03-04T01:27:23;95568.56;;;2.81;100.00
61408;BME280;47274;43.054;25.146;2023-03-04T01:29:56;95512.41;;;2.47;100.00
61408;BME280;47274;43.054;25.146;2023-03-04T01:32:22;95515.75;;;2.48;100.00
61408;BME280;47274;43.054;25.146;2023-03-04T01:34:51;95513.84;;;2.51;100.00
61408;BME280;47274;43.054;25.146;2023-03-04T01:37:29;95476.78;;;2.23;100.00
61408;BME280;47274;43.054;25.146;2023-03-04T01:40:04;95429.09;;;1.90;100.00
61408;BME280;47274;43.054;25.146;2023-03-04T01:42:42;95462.97;;;2.14;100.00
61408;BME280;47274;43.054;25.146;2023-03-04T01:45:24;95467.25;;;2.14;100.00
61408;BME280;47274;43.054;25.146;2023-03-04T01:48:00;95459.56;;;2.16;100.00
61408;BME280;47274;43.054;25.146;2023-03-04T01:50:44;95458.03;;;2.13;100.00
61408;BME280;47274;43.054;25.146;2023-03-04T01:53:23;95544.41;;;2.75;100.00
61408;BME280;47274;43.054;25.146;2023-03-04T01:56:01;95404.28;;;1.82;100.00
61408;BME280;47274;43.054;25.146;2023-03-04T01:58:41;95490.19;;;2.38;100.00
61408;BME280;47274;43.054;25.146;2023-03-04T02:01:14;95503.47;;;2.42;100.00
61408;BME280;47274;43.054;25.146;2023-03-04T02:03:52;95398.13;;;1.86;100.00
61408;BME280;47274;43.054;25.146;2023-03-04T02:06:21;95442.72;;;2.14;100.00
61408;BME280;47274;43.054;25.146;2023-03-04T02:08:53;95435.00;;;2.03;100.00
61408;BME280;47274;43.054;25.146;2023-03-04T02:11:20;95496.50;;;2.45;100.00
61408;BME280;47274;43.054;25.146;2023-03-04T02:13:52;95409.66;;;1.90;100.00
61408;BME280;47274;43.054;25.146;2023-03-04T02:16:24;95474.31;;;2.36;100.00
61408;BME280;47274;43.054;25.146;2023-03-04T02:18:57;95407.22;;;1.89;100.00
61408;BME280;47274;43.054;25.146;2023-03-04T02:21:36;95431.56;;;2.04;100.00
61408;BME280;47274;43.054;25.146;2023-03-04T02:26:50;95414.72;;;1.90;100.00
61408;BME280;47274;43.054;25.146;2023-03-04T02:29:19;95490.63;;;2.45;100.00
61408;BME280;47274;43.054;25.146;2023-03-04T02:31:53;95468.72;;;2.31;100.00
61408;BME280;47274;43.054;25.146;2023-03-04T02:34:34;95477.66;;;2.36;100.00
61408;BME280;47274;43.054;25.146;2023-03-04T02:37:15;95454.72;;;2.25;100.00
61408;BME280;47274;43.054;25.146;2023-03-04T02:39:51;95451.25;;;2.13;100.00
61408;BME280;47274;43.054;25.146;2023-03-04T02:42:24;95498.03;;;2.48;100.00
61408;BME280;47274;43.054;25.146;2023-03-04T02:45:02;95468.72;;;2.31;100.00
61408;BME280;47274;43.054;25.146;2023-03-04T02:47:36;95403.91;;;1.88;100.00
61408;BME280;47274;43.054;25.146;2023-03-04T02:50:12;95535.28;;;2.73;100.00
61408;BME280;47274;43.054;25.146;2023-03-04T02:52:50;95450.94;;;2.18;100.00
61408;BME280;47274;43.054;25.146;2023-03-04T02:55:24;95411.31;;;1.92;100.00
61408;BME280;47274;43.054;25.146;2023-03-04T02:57:54;95481.41;;;2.44;100.00
61408;BME280;47274;43.054;25.146;2023-03-04T03:00:31;95479.56;;;2.46;100.00
61408;BME280;47274;43.054;25.146;2023-03-04T03:03:06;95465.44;;;2.29;100.00
61408;BME280;47274;43.054;25.146;2023-03-04T03:05:40;95397.72;;;1.93;100.00
61408;BME280;47274;43.054;25.146;2023-03-04T03:08:20;95407.56;;;1.97;100.00
61408;BME280;47274;43.054;25.146;2023-03-04T03:10:52;95416.28;;;2.06;100.00
61408;BME280;47274;43.054;25.146;2023-03-04T03:13:23;95395.09;;;1.94;100.00
61408;BME280;47274;43.054;25.146;2023-03-04T03:15:54;95412.34;;;2.02;100.00
61408;BME280;47274;43.054;25.146;2023-03-04T03:18:29;95459.88;;;2.24;100.00
61408;BME280;47274;43.054;25.146;2023-03-04T03:20:59;95429.16;;;2.03;100.00
61408;BME280;47274;43.054;25.146;2023-03-04T03:23:30;95422.22;;;1.92;100.00
61408;BME280;47274;43.054;25.146;2023-03-04T03:26:00;95488.78;;;2.34;100.00
61408;BME280;47274;43.054;25.146;2023-03-04T03:28:31;95543.41;;;2.78;100.00
61408;BME280;47274;43.054;25.146;2023-03-04T03:31:03;95445.47;;;2.11;100.00
61408;BME280;47274;43.054;25.146;2023-03-04T03:33:43;95467.84;;;2.18;100.00
61408;BME280;47274;43.054;25.146;2023-03-04T03:36:14;95434.22;;;2.03;100.00
61408;BME280;47274;43.054;25.146;2023-03-04T03:38:48;95409.03;;;1.87;100.00
61408;BME280;47274;43.054;25.146;2023-03-04T03:41:15;95495.50;;;2.48;100.00
61408;BME280;47274;43.054;25.146;2023-03-04T03:43:46;95403.72;;;1.92;100.00
61408;BME280;47274;43.054;25.146;2023-03-04T03:46:27;95500.88;;;2.43;100.00
61408;BME280;47274;43.054;25.146;2023-03-04T03:48:58;95545.75;;;2.81;100.00
61408;BME280;47274;43.054;25.146;2023-03-04T03:51:35;95449.53;;;2.14;100.00
61408;BME280;47274;43.054;25.146;2023-03-04T03:54:06;95394.97;;;1.83;100.00
61408;BME280;47274;43.054;25.146;2023-03-04T03:56:38;95459.16;;;2.22;100.00
61408;BME280;47274;43.054;25.146;2023-03-04T03:59:17;95411.50;;;1.88;100.00
61408;BME280;47274;43.054;25.146;2023-03-04T04:01:46;95450.44;;;2.13;100.00
61408;BME280;47274;43.054;25.146;2023-03-04T04:04:18;95503.47;;;2.42;100.00
61408;BME280;47274;43.054;25.146;2023-03-04T04:06:54;95475.25;;;2.21;100.00
61408;BME280;47274;43.054;25.146;2023-03-04T04:09:31;95553.72;;;2.75;100.00
61408;BME280;47274;43.054;25.146;2023-03-04T04:12:00;95410.75;;;1.86;100.00
61408;BME280;47274;43.054;25.146;2023-03-04T04:14:33;95564.47;;;2.78;100.00
61408;BME280;47274;43.054;25.146;2023-03-04T04:17:06;95506.44;;;2.48;100.00
61408;BME280;47274;43.054;25.146;2023-03-04T04:19:41;95452.78;;;2.16;100.00
61408;BME280;47274;43.054;25.146;2023-03-04T04:22:19;95504.63;;;2.50;100.00
61408;BME280;47274;43.054;25.146;2023-03-04T04:24:51;95462.41;;;2.24;100.00
61408;BME280;47274;43.054;25.146;2023-03-04T04:27:20;95545.31;;;2.74;100.00
61408;BME280;47274;43.054;25.146;2023-03-04T04:29:53;95500.75;;;2.45;100.00
61408;BME280;47274;43.054;25.146;2023-03-04T04:32:26;95459.16;;;2.22;100.00
61408;BME280;47274;43.054;25.146;2023-03-04T04:34:52;95438.59;;;2.13;100.00
61408;BME280;47274;43.054;25.146;2023-03-04T04:37:19;95424.16;;;2.01;100.00
61408;BME280;47274;43.054;25.146;2023-03-04T04:39:45;95406.13;;;1.93;100.00
61408;BME280;47274;43.054;25.146;2023-03-04T04:42:14;95456.53;;;2.23;100.00
61408;BME280;47274;43.054;25.146;2023-03-04T04:44:40;95396.31;;;1.88;100.00
61408;BME280;47274;43.054;25.146;2023-03-04T04:47:06;95468.22;;;2.26;100.00
61408;BME280;47274;43.054;25.146;2023-03-04T04:49:32;95390.72;;;1.83;100.00
61408;BME280;47274;43.054;25.146;2023-03-04T04:51:58;95400.66;;;1.86;100.00
61408;BME280;47274;43.054;25.146;2023-03-04T04:54:27;95407.94;;;1.91;100.00
61408;BME280;47274;43.054;25.146;2023-03-04T04:56:58;95440.81;;;2.05;100.00
61408;BME280;47274;43.054;25.146;2023-03-04T04:59:24;95408.41;;;1.83;100.00
61408;BME280;47274;43.054;25.146;2023-03-04T05:01:50;95412.34;;;1.75;100.00
61408;BME280;47274;43.054;25.146;2023-03-04T05:04:16;95465.19;;;2.06;100.00
61408;BME280;47274;43.054;25.146;2023-03-04T05:06:42;95416.38;;;1.77;100.00
61408;BME280;47274;43.054;25.146;2023-03-04T05:09:08;95407.47;;;1.72;100.00
61408;BME280;47274;43.054;25.146;2023-03-04T05:11:34;95420.44;;;1.80;100.00
61408;BME280;47274;43.054;25.146;2023-03-04T05:14:03;95447.53;;;1.92;100.00
61408;BME280;47274;43.054;25.146;2023-03-04T05:16:29;95437.59;;;1.89;100.00
61408;BME280;47274;43.054;25.146;2023-03-04T05:18:55;95510.03;;;2.31;100.00
61408;BME280;47274;43.054;25.146;2023-03-04T05:21:24;95489.84;;;2.17;100.00
61408;BME280;47274;43.054;25.146;2023-03-04T05:23:50;95520.41;;;2.41;100.00
61408;BME280;47274;43.054;25.146;2023-03-04T05:26:17;95504.03;;;2.32;100.00
61408;BME280;47274;43.054;25.146;2023-03-04T05:28:44;95428.41;;;1.74;100.00
61408;BME280;47274;43.054;25.146;2023-03-04T05:31:11;95464.84;;;1.98;100.00
61408;BME280;47274;43.054;25.146;2023-03-04T05:33:37;95479.38;;;2.09;100.00
61408;BME280;47274;43.054;25.146;2023-03-04T05:36:05;95511.44;;;2.23;100.00
61408;BME280;47274;43.054;25.146;2023-03-04T05:38:34;95546.44;;;2.43;100.00
61408;BME280;47274;43.054;25.146;2023-03-04T05:41:03;95492.03;;;2.09;100.00
61408;BME280;47274;43.054;25.146;2023-03-04T05:43:33;95513.34;;;2.19;100.00
61408;BME280;47274;43.054;25.146;2023-03-04T05:46:04;95452.16;;;1.85;100.00
61408;BME280;47274;43.054;25.146;2023-03-04T05:48:35;95551.09;;;2.49;100.00
61408;BME280;47274;43.054;25.146;2023-03-04T05:51:02;95542.09;;;2.45;100.00
61408;BME280;47274;43.054;25.146;2023-03-04T05:53:28;95455.31;;;1.89;100.00
61408;BME280;47274;43.054;25.146;2023-03-04T05:56:12;95541.28;;;2.45;100.00
61408;BME280;47274;43.054;25.146;2023-03-04T05:58:40;95446.63;;;1.93;100.00
61408;BME280;47274;43.054;25.146;2023-03-04T06:01:15;95440.81;;;1.91;100.00
61408;BME280;47274;43.054;25.146;2023-03-04T06:03:42;95504.88;;;2.33;100.00
61408;BME280;47274;43.054;25.146;2023-03-04T06:06:08;95529.84;;;2.52;100.00
61408;BME280;47274;43.054;25.146;2023-03-04T06:08:34;95500.13;;;2.41;100.00
61408;BME280;47274;43.054;25.146;2023-03-04T06:11:12;95496.06;;;2.38;100.00
61408;BME280;47274;43.054;25.146;2023-03-04T06:13:40;95572.41;;;2.87;100.00
61408;BME280;47274;43.054;25.146;2023-03-04T06:16:08;95478.13;;;2.29;100.00
61408;BME280;47274;43.054;25.146;2023-03-04T06:18:34;95485.25;;;2.36;100.00
61408;BME280;47274;43.054;25.146;2023-03-04T06:21:05;95428.47;;;2.13;100.00
61408;BME280;47274;43.054;25.146;2023-03-04T06:23:31;95482.94;;;2.46;100.00
61408;BME280;47274;43.054;25.146;2023-03-04T06:25:58;95487.41;;;2.55;100.00
61408;BME280;47274;43.054;25.146;2023-03-04T06:28:25;95474.44;;;2.47;100.00
61408;BME280;47274;43.054;25.146;2023-03-04T06:30:53;95456.09;;;2.44;100.00
61408;BME280;47274;43.054;25.146;2023-03-04T06:33:19;95460.66;;;2.51;100.00
61408;BME280;47274;43.054;25.146;2023-03-04T06:35:46;95539.16;;;3.04;100.00
61408;BME280;47274;43.054;25.146;2023-03-04T06:38:15;95444.53;;;2.52;100.00
61408;BME280;47274;43.054;25.146;2023-03-04T06:40:41;95447.00;;;2.54;100.00
61408;BME280;47274;43.054;25.146;2023-03-04T06:43:12;95532.69;;;3.13;100.00
61408;BME280;47274;43.054;25.146;2023-03-04T06:45:39;95498.91;;;2.87;100.00
61408;BME280;47274;43.054;25.146;2023-03-04T06:48:10;95569.31;;;3.34;100.00
61408;BME280;47274;43.054;25.146;2023-03-04T06:50:39;95572.66;;;3.35;100.00
61408;BME280;47274;43.054;25.146;2023-03-04T06:53:05;95551.06;;;3.16;100.00
61408;BME280;47274;43.054;25.146;2023-03-04T06:55:31;95479.03;;;2.68;100.00
61408;BME280;47274;43.054;25.146;2023-03-04T06:57:57;95459.72;;;2.52;100.00
61408;BME280;47274;43.054;25.146;2023-03-04T07:00:26;95469.59;;;2.70;100.00
61408;BME280;47274;43.054;25.146;2023-03-04T07:02:57;95516.97;;;3.07;100.00
61408;BME280;47274;43.054;25.146;2023-03-04T07:05:26;95515.94;;;3.10;100.00
61408;BME280;47274;43.054;25.146;2023-03-04T07:08:01;95476.09;;;2.87;100.00
61408;BME280;47274;43.054;25.146;2023-03-04T07:10:27;95517.28;;;3.03;100.00
61408;BME280;47274;43.054;25.146;2023-03-04T07:12:53;95435.75;;;2.58;100.00
61408;BME280;47274;43.054;25.146;2023-03-04T07:15:19;95598.47;;;3.67;100.00
61408;BME280;47274;43.054;25.146;2023-03-04T07:17:45;95489.50;;;3.01;100.00
61408;BME280;47274;43.054;25.146;2023-03-04T07:20:11;95461.00;;;2.85;100.00
61408;BME280;47274;43.054;25.146;2023-03-04T07:22:37;95451.34;;;2.90;100.00
61408;BME280;47274;43.054;25.146;2023-03-04T07:25:07;95511.81;;;3.09;100.00
61408;BME280;47274;43.054;25.146;2023-03-04T07:27:35;95486.16;;;3.01;100.00
61408;BME280;47274;43.054;25.146;2023-03-04T07:30:04;95524.88;;;3.41;100.00
61408;BME280;47274;43.054;25.146;2023-03-04T07:32:30;95583.59;;;3.86;100.00
61408;BME280;47274;43.054;25.146;2023-03-04T07:34:59;95463.94;;;3.04;100.00
61408;BME280;47274;43.054;25.146;2023-03-04T07:37:27;95527.84;;;3.35;100.00
61408;BME280;47274;43.054;25.146;2023-03-04T07:39:56;95562.53;;;3.60;100.00
61408;BME280;47274;43.054;25.146;2023-03-04T07:42:22;95467.09;;;3.08;100.00
61408;BME280;47274;43.054;25.146;2023-03-04T07:44:56;95440.22;;;2.93;100.00
61408;BME280;47274;43.054;25.146;2023-03-04T07:47:24;95531.38;;;3.45;100.00
61408;BME280;47274;43.054;25.146;2023-03-04T07:49:50;95481.78;;;3.16;100.00
61408;BME280;47274;43.054;25.146;2023-03-04T07:52:16;95456.13;;;3.07;100.00
61408;BME280;47274;43.054;25.146;2023-03-04T07:54:49;95545.28;;;3.52;100.00
61408;BME280;47274;43.054;25.146;2023-03-04T07:57:15;95470.41;;;3.21;100.00
61408;BME280;47274;43.054;25.146;2023-03-04T07:59:41;95583.59;;;3.86;100.00
61408;BME280;47274;43.054;25.146;2023-03-04T08:02:10;95546.44;;;3.85;100.00
61408;BME280;47274;43.054;25.146;2023-03-04T08:04:36;95482.34;;;3.45;100.00
61408;BME280;47274;43.054;25.146;2023-03-04T08:07:02;95474.06;;;3.43;100.00
61408;BME280;47274;43.054;25.146;2023-03-04T08:09:28;95486.97;;;3.76;100.00
61408;BME280;47274;43.054;25.146;2023-03-04T08:11:54;95526.56;;;4.16;100.00
61408;BME280;47274;43.054;25.146;2023-03-04T08:14:20;95449.69;;;3.90;100.00
61408;BME280;47274;43.054;25.146;2023-03-04T08:16:46;95511.84;;;4.56;100.00
61408;BME280;47274;43.054;25.146;2023-03-04T08:19:15;95460.81;;;4.59;100.00
61408;BME280;47274;43.054;25.146;2023-03-04T08:21:41;95461.91;;;4.90;100.00
61408;BME280;47274;43.054;25.146;2023-03-04T08:24:08;95496.66;;;5.36;100.00
61408;BME280;47274;43.054;25.146;2023-03-04T08:26:47;95534.38;;;5.42;100.00
61408;BME280;47274;43.054;25.146;2023-03-04T08:29:19;95528.94;;;5.47;100.00
61408;BME280;47274;43.054;25.146;2023-03-04T08:31:46;95461.03;;;5.36;100.00
61408;BME280;47274;43.054;25.146;2023-03-04T08:34:13;95503.59;;;6.02;100.00
61408;BME280;47274;43.054;25.146;2023-03-04T08:36:43;95509.91;;;6.18;100.00
61408;BME280;47274;43.054;25.146;2023-03-04T08:39:11;95578.69;;;6.84;99.21
61408;BME280;47274;43.054;25.146;2023-03-04T08:41:38;95485.03;;;6.75;96.80
61408;BME280;47274;43.054;25.146;2023-03-04T08:44:05;95528.75;;;7.33;93.49
61408;BME280;47274;43.054;25.146;2023-03-04T08:46:33;95541.63;;;7.83;95.11
61408;BME280;47274;43.054;25.146;2023-03-04T08:49:02;95561.97;;;8.35;93.15
61408;BME280;47274;43.054;25.146;2023-03-04T08:51:31;95522.72;;;8.05;89.93
61408;BME280;47274;43.054;25.146;2023-03-04T08:53:57;95421.81;;;7.30;91.18
61408;BME280;47274;43.054;25.146;2023-03-04T08:56:33;95488.00;;;7.83;91.75
61408;BME280;47274;43.054;25.146;2023-03-04T08:59:00;95510.13;;;8.23;91.33
61408;BME280;47274;43.054;25.146;2023-03-04T09:01:29;95506.56;;;8.65;93.52
61408;BME280;47274;43.054;25.146;2023-03-04T09:03:55;95447.69;;;8.16;88.64
61408;BME280;47274;43.054;25.146;2023-03-04T09:06:20;95458.09;;;8.63;86.40
61408;BME280;47274;43.054;25.146;2023-03-04T09:08:47;95422.03;;;8.47;86.31
61408;BME280;47274;43.054;25.146;2023-03-04T09:11:13;95432.16;;;9.05;85.83
61408;BME280;47274;43.054;25.146;2023-03-04T09:13:39;95455.97;;;9.25;85.12
61408;BME280;47274;43.054;25.146;2023-03-04T09:16:13;95539.91;;;9.78;85.64
61408;BME280;47274;43.054;25.146;2023-03-04T09:18:50;95497.31;;;9.67;86.40
61408;BME280;47274;43.054;25.146;2023-03-04T09:21:17;95458.44;;;9.07;86.61
61408;BME280;47274;43.054;25.146;2023-03-04T09:23:50;95492.13;;;9.02;86.03
61408;BME280;47274;43.054;25.146;2023-03-04T09:26:26;95401.28;;;8.01;85.75
61408;BME280;47274;43.054;25.146;2023-03-04T09:28:55;95454.69;;;8.14;87.26
61408;BME280;47274;43.054;25.146;2023-03-04T09:31:23;95477.16;;;8.30;87.95
61408;BME280;47274;43.054;25.146;2023-03-04T09:33:50;95511.13;;;8.61;90.64
61408;BME280;47274;43.054;25.146;2023-03-04T09:36:16;95522.97;;;8.82;89.81
61408;BME280;47274;43.054;25.146;2023-03-04T09:38:50;95448.81;;;8.72;90.55
61408;BME280;47274;43.054;25.146;2023-03-04T09:41:20;95402.38;;;8.47;89.87
61408;BME280;47274;43.054;25.146;2023-03-04T09:43:48;95533.31;;;9.19;87.37
61408;BME280;47274;43.054;25.146;2023-03-04T09:46:24;95402.75;;;8.23;89.86
61408;BME280;47274;43.054;25.146;2023-03-04T09:48:58;95375.31;;;8.16;91.60
61408;BME280;47274;43.054;25.146;2023-03-04T09:54:12;95519.88;;;9.07;90.06
61408;BME280;47274;43.054;25.146;2023-03-04T09:56:43;95408.94;;;8.30;90.41
61408;BME280;47274;43.054;25.146;2023-03-04T09:59:40;95509.66;;;8.78;89.98
61408;BME280;47274;43.054;25.146;2023-03-04T10:02:25;95380.13;;;7.70;90.06
61408;BME280;47274;43.054;25.146;2023-03-04T10:05:01;95445.28;;;8.15;92.27
61408;BME280;47274;43.054;25.146;2023-03-04T10:07:36;95477.75;;;8.82;91.58
61408;BME280;47274;43.054;25.146;2023-03-04T10:10:18;95507.34;;;9.04;90.66
61408;BME280;47274;43.054;25.146;2023-03-04T10:12:48;95504.38;;;8.99;89.96
61408;BME280;47274;43.054;25.146;2023-03-04T10:18:01;95431.09;;;9.08;87.76
61408;BME280;47274;43.054;25.146;2023-03-04T10:21:07;95490.72;;;9.75;89.82
61408;BME280;47274;43.054;25.146;2023-03-04T10:23:39;95421.47;;;10.02;87.76
61408;BME280;47274;43.054;25.146;2023-03-04T10:26:18;95485.56;;;10.30;84.25
61408;BME280;47274;43.054;25.146;2023-03-04T10:28:55;95403.59;;;9.75;85.01
61408;BME280;47274;43.054;25.146;2023-03-04T10:31:34;95353.41;;;9.27;84.03
61408;BME280;47274;43.054;25.146;2023-03-04T10:34:04;95398.00;;;9.34;81.34
61408;BME280;47274;43.054;25.146;2023-03-04T10:36:52;95452.56;;;9.34;85.11
61408;BME280;47274;43.054;25.146;2023-03-04T10:39:31;95470.53;;;9.15;84.91
61408;BME280;47274;43.054;25.146;2023-03-04T10:44:30;95383.81;;;8.55;87.43
61408;BME280;47274;43.054;25.146;2023-03-04T10:46:57;95328.88;;;8.30;88.14
61408;BME280;47274;43.054;25.146;2023-03-04T10:49:24;95355.00;;;8.53;88.17
61408;BME280;47274;43.054;25.146;2023-03-04T10:52:01;95404.78;;;8.68;86.95
61408;BME280;47274;43.054;25.146;2023-03-04T10:54:38;95448.66;;;8.93;89.14
61408;BME280;47274;43.054;25.146;2023-03-04T10:57:15;95300.81;;;7.91;88.53
61408;BME280;47274;43.054;25.146;2023-03-04T11:02:20;95403.44;;;8.54;89.87
61408;BME280;47274;43.054;25.146;2023-03-04T11:05:16;95441.41;;;8.69;89.69
61408;BME280;47274;43.054;25.146;2023-03-04T11:07:57;95443.00;;;8.70;90.62
61408;BME280;47274;43.054;25.146;2023-03-04T11:10:29;95361.75;;;8.15;90.58
61408;BME280;47274;43.054;25.146;2023-03-04T11:15:56;95414.22;;;8.48;90.51
61408;BME280;47274;43.054;25.146;2023-03-04T11:20:56;95381.50;;;8.32;91.93
61408;BME280;47274;43.054;25.146;2023-03-04T11:26:08;95315.72;;;8.05;91.81
61408;BME280;47274;43.054;25.146;2023-03-04T11:28:55;95386.56;;;8.81;91.25
61408;BME280;47274;43.054;25.146;2023-03-04T11:31:27;95396.22;;;9.34;89.24
61408;BME280;47274;43.054;25.146;2023-03-04T11:34:06;95377.72;;;10.21;87.25
61408;BME280;47274;43.054;25.146;2023-03-04T11:36:44;95351.25;;;10.83;84.26
61408;BME280;47274;43.054;25.146;2023-03-04T11:42:04;95370.84;;;11.52;79.66
61408;BME280;47274;43.054;25.146;2023-03-04T11:44:32;95363.94;;;12.03;80.23
61408;BME280;47274;43.054;25.146;2023-03-04T11:49:45;95375.03;;;12.37;76.70
61408;BME280;47274;43.054;25.146;2023-03-04T11:55:17;95370.41;;;11.23;72.74
61408;BME280;47274;43.054;25.146;2023-03-04T12:06:20;95321.41;;;9.58;79.76
61408;BME280;47274;43.054;25.146;2023-03-04T12:14:29;95333.97;;;9.34;82.65
61408;BME280;47274;43.054;25.146;2023-03-04T12:22:44;95344.72;;;11.81;75.14
61408;BME280;47274;43.054;25.146;2023-03-04T12:28:02;95330.78;;;11.84;73.56
61408;BME280;47274;43.054;25.146;2023-03-04T12:44:38;95319.34;;;11.28;73.33
61408;BME280;47274;43.054;25.146;2023-03-04T12:49:58;95321.44;;;11.24;69.87
61408;BME280;47274;43.054;25.146;2023-03-04T12:52:47;95319.47;;;10.76;71.59
61408;BME280;47274;43.054;25.146;2023-03-04T12:55:22;95318.63;;;10.67;74.19
61408;BME280;47274;43.054;25.146;2023-03-04T12:57:54;95293.13;;;10.39;75.79
61408;BME280;47274;43.054;25.146;2023-03-04T13:06:10;95314.03;;;10.27;78.46
61408;BME280;47274;43.054;25.146;2023-03-04T13:16:49;95296.13;;;11.37;73.55
61408;BME280;47274;43.054;25.146;2023-03-04T13:24:56;95279.63;;;11.56;71.96
61408;BME280;47274;43.054;25.146;2023-03-04T13:27:45;95285.91;;;11.70;73.78
61408;BME280;47274;43.054;25.146;2023-03-04T13:32:57;95279.94;;;11.61;71.27
61408;BME280;47274;43.054;25.146;2023-03-04T13:56:36;95242.72;;;10.30;76.84
61408;BME280;47274;43.054;25.146;2023-03-04T13:59:23;95247.44;;;10.25;79.08
61408;BME280;47274;43.054;25.146;2023-03-04T14:04:31;95242.78;;;10.20;77.38
61408;BME280;47274;43.054;25.146;2023-03-04T14:06:58;95232.31;;;10.14;77.34
61408;BME280;47274;43.054;25.146;2023-03-04T14:09:27;95241.28;;;10.10;79.32
61408;BME280;47274;43.054;25.146;2023-03-04T14:12:14;95234.97;;;10.04;77.71
61408;BME280;47274;43.054;25.146;2023-03-04T14:14:50;95213.13;;;9.92;77.53
61408;BME280;47274;43.054;25.146;2023-03-04T14:17:24;95195.84;;;9.76;78.34
61408;BME280;47274;43.054;25.146;2023-03-04T14:19:51;95208.16;;;9.72;76.87
61408;BME280;47274;43.054;25.146;2023-03-04T14:22:37;95223.38;;;9.74;77.28
61408;BME280;47274;43.054;25.146;2023-03-04T14:25:20;95205.19;;;9.59;75.94
61408;BME280;47274;43.054;25.146;2023-03-04T14:27:47;95199.00;;;9.70;78.67
61408;BME280;47274;43.054;25.146;2023-03-04T14:30:24;95215.84;;;9.72;76.69
61408;BME280;47274;43.054;25.146;2023-03-04T14:32:56;95223.97;;;9.86;79.39
61408;BME280;47274;43.054;25.146;2023-03-04T14:35:28;95197.66;;;9.84;80.00
61408;BME280;47274;43.054;25.146;2023-03-04T14:38:03;95217.94;;;9.95;79.88
61408;BME280;47274;43.054;25.146;2023-03-04T14:40:35;95204.84;;;9.80;78.75
61408;BME280;47274;43.054;25.146;2023-03-04T14:43:13;95187.28;;;9.67;78.88
61408;BME280;47274;43.054;25.146;2023-03-04T14:45:42;95216.19;;;9.78;80.11
61408;BME280;47274;43.054;25.146;2023-03-04T14:48:17;95209.66;;;9.57;80.03
61408;BME280;47274;43.054;25.146;2023-03-04T14:50:48;95211.91;;;9.60;79.98
61408;BME280;47274;43.054;25.146;2023-03-04T14:53:18;95182.94;;;9.42;80.59
61408;BME280;47274;43.054;25.146;2023-03-04T14:58:23;95202.84;;;9.30;81.05
61408;BME280;47274;43.054;25.146;2023-03-04T15:03:33;95200.47;;;9.01;83.43
61408;BME280;47274;43.054;25.146;2023-03-04T15:06:15;95203.78;;;8.93;83.09
61408;BME280;47274;43.054;25.146;2023-03-04T15:08:43;95191.31;;;8.81;84.22
61408;BME280;47274;43.054;25.146;2023-03-04T15:11:21;95174.66;;;8.49;84.29
61408;BME280;47274;43.054;25.146;2023-03-04T15:13:53;95158.19;;;8.24;85.91
61408;BME280;47274;43.054;25.146;2023-03-04T15:16:22;95192.31;;;8.32;86.85